HBA weather

Hobart International Airport
Hobart, Tasmania, Australia

Public forecast

Using degrees Celsius for public forecast. Weather courtesy of forecast.io.

Current aviation weather report (METAR) for Hobart International Airport

Retrieved 2019/10/23 09:30 UTC (23 minutes ago):

YMHB 230930Z 17008KT 9999 FEW012 SCT180 BKN220 12/09 Q1019 RF000/0000

Aviation forecast (TAF) for Hobart International Airport

Retrieved 2019/10/23 06:48 UTC (3 hours ago):

TAF TAF YMHB 230535Z 2306/2406 16012KT CAVOK FM230900 16008KT 9999 FEW015 BKN020 FM231500 03005KT 9999 FEW010 BKN015 FM232200 35010KT CAVOK TEMPO 2311/2315 4000 -SHRA BKN010